Time;durP1;ratioP1;P1;durP2;ratioP2;P2;SDS_P1;SDS_P2;PMS_P1;PMS_P2;Temp;Humidity;BMP_temperature;BMP_pressure;BME280_temperature;BME280_humidity;BME280_pressure;Samples;Min_cycle;Max_cycle;Signal;HPM_P1;HPM_P2
2022/01/31 00:02:13;;;;;;;5.35;1.57;;;;;;;1.92;68.45;100298.44;1718819;82;21069;-81
2022/01/31 00:04:42;;;;;;;5.95;1.30;;;;;;;2.00;68.52;100298.41;1718738;82;21065;-81
2022/01/31 00:07:10;;;;;;;4.78;1.72;;;;;;;2.06;68.57;100296.55;1718827;82;21056;-82
2022/01/31 00:09:37;;;;;;;5.47;1.50;;;;;;;2.12;68.76;100306.85;1690260;83;21766;-82
2022/01/31 00:12:09;;;;;;;5.67;2.17;;;;;;;2.17;69.03;100308.37;1718940;83;21628;-83
2022/01/31 00:14:41;;;;;;;3.40;1.37;;;;;;;2.21;70.73;100306.83;1718834;83;21057;-83
2022/01/31 00:17:03;;;;;;;4.00;1.30;;;;;;;2.17;70.58;100307.48;1717707;83;21136;-82
2022/01/31 00:19:29;;;;;;;1.80;1.20;;;;;;;2.12;70.36;100303.34;1718851;83;21068;-83
2022/01/31 00:21:56;;;;;;;6.30;1.60;;;;;;;2.07;70.40;100299.64;1718913;83;22564;-83
2022/01/31 00:24:23;;;;;;;5.05;1.35;;;;;;;2.05;70.63;100296.95;1719033;82;21061;-83
2022/01/31 00:26:49;;;;;;;6.20;1.82;;;;;;;2.06;70.73;100297.42;1719077;83;21062;-83
2022/01/31 00:29:17;;;;;;;5.17;2.00;;;;;;;2.08;70.74;100293.62;1719202;83;21511;-83
2022/01/31 00:31:43;;;;;;;6.35;1.87;;;;;;;2.09;70.87;100287.21;1719023;82;21049;-84
2022/01/31 00:34:10;;;;;;;4.53;1.60;;;;;;;2.10;70.83;100285.11;1718936;83;21757;-83
2022/01/31 00:36:37;;;;;;;4.10;1.77;;;;;;;2.11;70.85;100277.80;1718945;82;21228;-83
2022/01/31 00:39:03;;;;;;;6.67;1.90;;;;;;;2.11;70.91;100272.60;1719024;83;20998;-82
2022/01/31 00:41:30;;;;;;;7.00;2.08;;;;;;;2.12;70.88;100266.99;1718934;82;21058;-83
2022/01/31 00:44:16;;;;;;;5.62;1.82;;;;;;;2.14;71.00;100268.88;1718924;82;22163;-83
2022/01/31 00:46:40;;;;;;;11.65;1.92;;;;;;;2.15;70.92;100263.27;1716239;83;21787;-83
2022/01/31 00:49:00;;;;;;;5.22;1.90;;;;;;;2.12;70.82;100261.42;1717110;83;21040;-83
2022/01/31 00:51:28;;;;;;;8.33;2.00;;;;;;;2.08;70.85;100262.46;1717976;82;21555;-84
2022/01/31 00:53:55;;;;;;;3.72;1.70;;;;;;;2.02;70.86;100252.66;1712606;83;21076;-84
2022/01/31 00:56:22;;;;;;;4.70;1.85;;;;;;;1.96;70.51;100250.17;1708459;83;21552;-84
2022/01/31 00:58:48;;;;;;;9.10;1.87;;;;;;;1.85;70.31;100254.80;1708344;83;21954;-84
2022/01/31 01:01:15;;;;;;;7.67;1.72;;;;;;;1.76;70.11;100259.09;1708545;83;21586;-84
2022/01/31 01:03:42;;;;;;;5.15;1.22;;;;;;;1.68;70.06;100260.41;1708429;84;21069;-83
2022/01/31 01:06:09;;;;;;;3.77;1.17;;;;;;;1.59;69.97;100254.73;1708576;84;21030;-84
2022/01/31 01:08:35;;;;;;;4.10;1.20;;;;;;;1.52;69.97;100249.61;1708654;84;21117;-84
2022/01/31 01:11:02;;;;;;;8.45;2.15;;;;;;;1.47;69.94;100248.09;1688033;84;22583;-84
2022/01/31 01:13:29;;;;;;;6.72;1.45;;;;;;;1.44;69.78;100241.42;1708600;84;21068;-83
2022/01/31 01:15:55;;;;;;;8.43;1.60;;;;;;;1.44;69.67;100240.13;1708668;82;21120;-82
2022/01/31 01:18:22;;;;;;;3.75;1.22;;;;;;;1.44;69.64;100248.33;1708667;84;21061;-82
2022/01/31 01:20:49;;;;;;;3.47;1.17;;;;;;;1.43;69.61;100233.59;1708370;82;21037;-83
2022/01/31 01:23:16;;;;;;;5.85;1.60;;;;;;;1.39;69.63;100240.70;1708492;84;21693;-83
2022/01/31 01:25:42;;;;;;;7.60;1.60;;;;;;;1.34;69.57;100229.67;1708552;83;21112;-83
2022/01/31 01:28:09;;;;;;;4.67;1.35;;;;;;;1.28;69.55;100229.36;1708522;84;21049;-84
2022/01/31 01:30:38;;;;;;;5.90;1.40;;;;;;;1.23;69.49;100224.73;1708449;82;21116;-84
2022/01/31 01:33:11;;;;;;;4.53;1.20;;;;;;;1.18;69.49;100231.37;1708436;84;21057;-83
2022/01/31 01:35:36;;;;;;;6.87;1.65;;;;;;;1.11;69.58;100224.98;1707424;83;23040;-83
2022/01/31 01:38:06;;;;;;;7.78;1.67;;;;;;;1.08;69.56;100226.09;1707612;84;21024;-83
2022/01/31 01:40:31;;;;;;;7.20;1.80;;;;;;;1.04;69.64;100224.15;1707908;83;21496;-83
2022/01/31 01:43:00;;;;;;;7.03;1.50;;;;;;;0.96;69.66;100228.91;1708235;83;21078;-83
2022/01/31 01:45:26;;;;;;;4.12;1.30;;;;;;;0.89;69.78;100230.27;1708081;83;21101;-83
2022/01/31 01:47:53;;;;;;;4.22;1.17;;;;;;;0.83;69.85;100227.34;1708270;84;21923;-83
2022/01/31 01:50:20;;;;;;;5.47;1.60;;;;;;;0.78;69.90;100228.36;1708096;84;21097;-83
2022/01/31 01:52:46;;;;;;;4.33;1.62;;;;;;;0.73;69.97;100220.77;1708217;84;21049;-83
2022/01/31 01:55:13;;;;;;;5.37;1.32;;;;;;;0.70;70.00;100215.81;1718476;83;21053;-83
2022/01/31 01:57:42;;;;;;;7.37;1.40;;;;;;;0.66;70.02;100221.64;1690227;82;21092;-84
2022/01/31 02:00:18;;;;;;;5.75;1.55;;;;;;;0.62;70.06;100216.69;1718826;82;21073;-83
2022/01/31 02:02:40;;;;;;;5.65;1.75;;;;;;;0.58;70.12;100216.91;1717736;82;21614;-83
2022/01/31 02:05:08;;;;;;;4.85;1.55;;;;;;;0.57;70.22;100204.75;1718760;83;21594;-83
2022/01/31 02:07:35;;;;;;;5.67;1.60;;;;;;;0.54;70.24;100206.28;1718965;83;21072;-83
2022/01/31 02:10:06;;;;;;;4.35;1.55;;;;;;;0.52;70.29;100204.01;1718938;83;22228;-83
2022/01/31 02:12:41;;;;;;;6.25;1.90;;;;;;;0.50;70.39;100192.67;1718897;82;21779;-83
2022/01/31 02:15:08;;;;;;;7.83;1.50;;;;;;;0.45;70.40;100201.50;1719095;83;21586;-83
2022/01/31 02:17:35;;;;;;;3.80;1.50;;;;;;;0.42;70.41;100199.13;1719240;82;21214;-84
2022/01/31 02:20:04;;;;;;;3.83;1.30;;;;;;;0.41;70.57;100201.22;1719087;82;21062;-84
2022/01/31 02:22:31;;;;;;;4.55;1.42;;;;;;;0.40;70.63;100196.86;1718943;82;21077;-84
2022/01/31 02:25:01;;;;;;;10.78;1.90;;;;;;;0.40;70.67;100199.45;1719196;82;21743;-84
2022/01/31 02:27:31;;;;;;;6.75;1.70;;;;;;;0.40;70.78;100206.80;1718746;83;21018;-83
2022/01/31 02:29:58;;;;;;;7.50;2.08;;;;;;;0.40;70.79;100206.80;1719088;82;21112;-83
2022/01/31 02:32:26;;;;;;;6.87;1.80;;;;;;;0.38;70.86;100195.47;1719145;83;21553;-83
2022/01/31 02:34:52;;;;;;;7.70;1.60;;;;;;;0.36;70.92;100194.50;1718981;82;21068;-83
2022/01/31 02:37:19;;;;;;;5.22;1.90;;;;;;;0.34;70.97;100190.94;1718722;82;21705;-83
2022/01/31 02:39:46;;;;;;;5.33;1.60;;;;;;;0.35;71.05;100204.35;1718780;83;21029;-83
2022/01/31 02:42:13;;;;;;;6.05;1.57;;;;;;;0.31;71.03;100194.22;1718804;83;21116;-83
2022/01/31 02:44:42;;;;;;;5.53;1.65;;;;;;;0.27;71.10;100193.56;1718766;82;21060;-83
2022/01/31 02:47:12;;;;;;;11.00;2.62;;;;;;;0.25;71.24;100193.88;1718400;82;21068;-82
2022/01/31 02:49:46;;;;;;;7.10;1.80;;;;;;;0.22;71.27;100188.52;1718393;82;21786;-83
2022/01/31 02:52:06;;;;;;;5.33;1.82;;;;;;;0.20;71.32;100191.42;1716729;83;21045;-83
2022/01/31 02:54:33;;;;;;;7.37;2.00;;;;;;;0.18;71.42;100193.03;1718373;83;21619;-83
2022/01/31 02:57:00;;;;;;;5.45;1.57;;;;;;;0.19;71.55;100194.83;1718279;83;21061;-83
2022/01/31 02:59:26;;;;;;;8.98;1.87;;;;;;;0.16;71.53;100191.64;1718667;82;21727;-83
2022/01/31 03:01:53;;;;;;;5.33;1.72;;;;;;;0.14;71.51;100185.91;1718607;83;21798;-83
2022/01/31 03:04:20;;;;;;;8.48;1.80;;;;;;;0.12;71.59;100191.40;1690196;83;22109;-83
2022/01/31 03:06:49;;;;;;;9.28;2.08;;;;;;;0.08;71.65;100183.86;1718909;83;21064;-83
2022/01/31 03:09:15;;;;;;;5.40;1.92;;;;;;;0.05;71.65;100180.20;1718770;82;21041;-83
2022/01/31 03:11:42;;;;;;;6.55;2.02;;;;;;;0.02;71.72;100183.52;1718781;83;21675;-84
2022/01/31 03:14:11;;;;;;;5.62;2.00;;;;;;;-0.02;71.81;100187.61;1718835;83;21763;-83
2022/01/31 03:16:40;;;;;;;6.20;1.50;;;;;;;-0.04;71.84;100187.93;1718774;82;21112;-83
2022/01/31 03:19:07;;;;;;;7.90;1.70;;;;;;;-0.05;71.96;100186.54;1718809;82;21120;-82
2022/01/31 03:21:34;;;;;;;6.60;1.85;;;;;;;-0.05;72.09;100185.25;1718624;82;21081;-83
2022/01/31 03:24:01;;;;;;;7.30;1.92;;;;;;;-0.04;72.12;100193.10;1718740;83;21061;-83
2022/01/31 03:26:27;;;;;;;11.00;1.77;;;;;;;-0.03;72.17;100193.98;1718937;83;21764;-83
2022/01/31 03:28:54;;;;;;;10.40;1.85;;;;;;;-0.02;72.23;100192.79;1718552;82;21104;-83
2022/01/31 03:31:25;;;;;;;5.90;1.47;;;;;;;0.00;72.21;100195.47;1718853;82;21091;-83
2022/01/31 03:33:52;;;;;;;4.67;1.72;;;;;;;0.00;72.24;100196.77;1718895;83;21076;-83
2022/01/31 03:36:19;;;;;;;7.62;1.62;;;;;;;0.00;72.26;100199.35;1718670;82;21677;-83
2022/01/31 03:38:46;;;;;;;7.25;1.55;;;;;;;-0.01;72.30;100192.38;1718712;83;21904;-83
2022/01/31 03:41:14;;;;;;;5.80;1.85;;;;;;;-0.01;72.35;100196.26;1718629;82;21065;-83
2022/01/31 03:43:41;;;;;;;7.78;2.00;;;;;;;0.01;72.39;100197.64;1718650;83;21053;-83
2022/01/31 03:46:08;;;;;;;4.72;1.50;;;;;;;0.00;72.36;100194.17;1690227;83;21067;-83
2022/01/31 03:48:34;;;;;;;4.67;1.57;;;;;;;-0.03;72.30;100187.11;1718720;83;21220;-83
2022/01/31 03:51:02;;;;;;;7.12;2.02;;;;;;;-0.06;72.41;100183.45;1718705;83;22397;-82
2022/01/31 03:53:29;;;;;;;11.63;1.90;;;;;;;-0.07;72.44;100188.15;1718562;82;21056;-83
2022/01/31 03:55:56;;;;;;;5.97;1.50;;;;;;;-0.06;72.61;100185.63;1718678;82;21132;-83
2022/01/31 03:58:23;;;;;;;4.47;1.77;;;;;;;-0.01;72.71;100179.03;1718581;83;21049;-82
2022/01/31 04:00:51;;;;;;;7.20;1.80;;;;;;;0.03;72.71;100172.75;1718592;83;21783;-83
2022/01/31 04:03:18;;;;;;;6.05;1.75;;;;;;;0.08;72.70;100169.63;1718538;82;21784;-83
2022/01/31 04:05:45;;;;;;;10.03;1.87;;;;;;;0.07;72.56;100174.30;1718316;82;21033;-82
2022/01/31 04:08:14;;;;;;;8.20;1.65;;;;;;;0.03;72.44;100174.92;1718636;82;21048;-82
2022/01/31 04:10:41;;;;;;;5.75;1.87;;;;;;;0.01;72.60;100171.36;1718659;82;21089;-81
2022/01/31 04:13:08;;;;;;;7.00;1.70;;;;;;;-0.02;72.54;100173.76;1718755;82;21083;-81
2022/01/31 04:15:39;;;;;;;11.63;1.87;;;;;;;-0.04;72.58;100177.95;1718353;82;21969;-83
2022/01/31 04:18:06;;;;;;;7.10;1.57;;;;;;;-0.03;72.66;100174.58;1690507;83;21080;-82
2022/01/31 04:20:33;;;;;;;6.08;1.90;;;;;;;-0.02;72.76;100170.80;1718446;83;21089;-82
2022/01/31 04:23:06;;;;;;;7.70;1.95;;;;;;;0.03;72.84;100169.75;1718694;83;21487;-83
2022/01/31 04:25:30;;;;;;;14.43;2.47;;;;;;;0.05;72.78;100168.14;1717820;83;21065;-82
2022/01/31 04:28:15;;;;;;;10.60;2.47;;;;;;;0.10;72.78;100165.42;1690601;83;21859;-82
2022/01/31 04:30:31;;;;;;;8.77;2.30;;;;;;;0.14;72.71;100163.91;1715857;82;21104;-82
2022/01/31 04:32:58;;;;;;;9.55;2.17;;;;;;;0.14;72.66;100159.61;1718829;83;21135;-82
2022/01/31 04:35:25;;;;;;;6.20;1.72;;;;;;;0.12;72.57;100158.64;1718746;82;21037;-82
2022/01/31 04:37:51;;;;;;;6.28;2.00;;;;;;;0.12;72.58;100158.64;1718708;83;21092;-82
2022/01/31 04:40:18;;;;;;;5.67;2.12;;;;;;;0.09;72.61;100149.39;1718860;82;22344;-82
2022/01/31 04:42:46;;;;;;;8.58;2.22;;;;;;;0.17;72.65;100153.33;1718721;82;21052;-82
2022/01/31 04:45:12;;;;;;;6.40;2.12;;;;;;;0.23;72.71;100154.08;1719068;82;21582;-81
2022/01/31 04:47:39;;;;;;;7.62;1.90;;;;;;;0.29;72.71;100150.95;1724322;82;21523;-82
2022/01/31 04:50:06;;;;;;;11.60;2.72;;;;;;;0.36;72.65;100153.08;1724371;83;21069;-82
2022/01/31 04:52:33;;;;;;;12.20;4.28;;;;;;;0.41;72.62;100144.26;1723915;83;22580;-82
2022/01/31 04:55:00;;;;;;;7.60;3.00;;;;;;;0.47;72.54;100146.80;1710506;83;21121;-83
2022/01/31 04:57:27;;;;;;;11.83;6.25;;;;;;;0.52;72.50;100138.86;1696842;83;21622;-83
2022/01/31 04:59:53;;;;;;;11.28;3.10;;;;;;;0.54;72.31;100137.23;1686973;84;21078;-83
2022/01/31 05:02:22;;;;;;;9.25;3.00;;;;;;;0.56;72.17;100130.48;1697154;83;21081;-83
2022/01/31 05:04:50;;;;;;;9.70;2.92;;;;;;;0.60;72.14;100131.92;1696731;83;21759;-83
2022/01/31 05:07:17;;;;;;;7.12;2.40;;;;;;;0.63;71.98;100130.80;1697066;83;21081;-82
2022/01/31 05:09:45;;;;;;;6.15;2.27;;;;;;;0.65;71.89;100124.00;1696685;83;21089;-82
2022/01/31 05:12:12;;;;;;;7.53;2.08;;;;;;;0.66;71.70;100127.09;1697208;84;21603;-82
2022/01/31 05:14:38;;;;;;;7.92;2.20;;;;;;;0.66;71.63;100133.16;1696964;83;21086;-82
2022/01/31 05:17:05;;;;;;;5.47;1.75;;;;;;;0.67;71.51;100124.98;1697020;83;21770;-81
2022/01/31 05:19:32;;;;;;;6.58;2.00;;;;;;;0.67;71.41;100121.09;1696977;83;21067;-81
2022/01/31 05:21:58;;;;;;;8.48;2.30;;;;;;;0.69;71.31;100116.88;1682515;84;21682;-85
2022/01/31 05:24:25;;;;;;;8.00;2.37;;;;;;;0.68;71.31;100116.41;1674706;85;21047;-85
2022/01/31 05:26:53;;;;;;;10.30;2.55;;;;;;;0.70;71.27;100122.56;1674610;85;21048;-81
2022/01/31 05:29:21;;;;;;;11.22;2.60;;;;;;;0.70;71.11;100121.27;1672456;85;21552;-86
2022/01/31 05:31:52;;;;;;;7.90;2.50;;;;;;;0.68;71.02;100115.12;1657241;84;21098;-88
2022/01/31 05:34:20;;;;;;;8.88;2.47;;;;;;;0.63;70.90;100110.97;1665330;84;21090;-86
2022/01/31 05:36:47;;;;;;;9.33;2.72;;;;;;;0.60;70.93;100113.79;1649169;85;21111;-84
2022/01/31 05:39:14;;;;;;;7.67;3.15;;;;;;;0.60;70.90;100121.56;1648077;87;21093;-83
2022/01/31 05:41:41;;;;;;;8.20;2.83;;;;;;;0.61;70.88;100116.47;1652362;85;22599;-85
2022/01/31 05:44:09;;;;;;;7.80;3.27;;;;;;;0.58;70.80;100115.00;1667381;84;21087;-87
2022/01/31 05:46:36;;;;;;;10.95;3.02;;;;;;;0.56;70.79;100107.17;1667797;86;21056;-85
2022/01/31 05:53:11;;;;;;;6.60;2.20;;;;;;;0.56;70.75;100113.64;1667217;86;21587;-87
2022/01/31 05:55:47;;;;;;;7.78;2.17;;;;;;;0.51;70.56;100115.50;1691454;82;21920;-88
2022/01/31 05:58:15;;;;;;;7.72;2.58;;;;;;;0.45;70.44;100109.58;1680785;83;21513;-88
2022/01/31 06:00:42;;;;;;;10.70;2.98;;;;;;;0.38;70.44;100112.22;1711077;82;21036;-92
2022/01/31 06:03:09;;;;;;;11.60;3.30;;;;;;;0.30;70.42;100105.73;1711996;83;21088;-93
2022/01/31 06:05:37;;;;;;;7.55;3.33;;;;;;;0.28;70.47;100105.14;1711233;83;21087;-92
2022/01/31 06:08:04;;;;;;;9.38;3.37;;;;;;;0.08;70.60;100082.05;1712068;83;21767;-92
2022/01/31 06:10:33;;;;;;;8.70;3.70;;;;;;;0.18;70.54;100103.33;1712315;83;21033;-92
2022/01/31 06:13:00;;;;;;;10.55;3.40;;;;;;;0.11;70.52;100099.94;1715156;83;21584;-92
2022/01/31 06:15:27;;;;;;;11.65;2.80;;;;;;;0.06;70.54;100094.02;1717035;83;21050;-92
2022/01/31 06:17:55;;;;;;;10.78;2.50;;;;;;;-0.03;70.56;100086.62;1673416;83;21094;-86
2022/01/31 06:20:22;;;;;;;9.33;2.77;;;;;;;-0.01;70.60;100092.36;1715206;83;22605;-85
2022/01/31 06:22:53;;;;;;;5.47;2.22;;;;;;;-0.04;70.64;100091.28;1715169;83;21528;-85
2022/01/31 06:25:20;;;;;;;8.05;2.45;;;;;;;-0.05;70.69;100101.16;1715364;83;21607;-86
2022/01/31 06:27:46;;;;;;;11.75;2.95;;;;;;;-0.05;70.75;100098.58;1686787;83;21265;-85
2022/01/31 06:30:13;;;;;;;9.50;2.83;;;;;;;-0.07;70.76;100096.31;1715458;83;21074;-85
2022/01/31 06:32:40;;;;;;;9.85;3.20;;;;;;;-0.08;70.77;100097.09;1715415;83;21816;-85
2022/01/31 06:35:08;;;;;;;7.72;3.05;;;;;;;-0.08;70.81;100095.80;1706188;81;21062;-85
2022/01/31 06:37:36;;;;;;;8.83;3.00;;;;;;;-0.24;70.83;100066.89;1696814;83;21540;-86
2022/01/31 06:40:05;;;;;;;7.78;3.05;;;;;;;-0.11;70.82;100093.03;1694413;84;21102;-86
2022/01/31 06:42:31;;;;;;;7.10;2.83;;;;;;;-0.13;70.89;100089.47;1686977;85;21555;-85
2022/01/31 06:44:58;;;;;;;11.08;3.77;;;;;;;-0.10;70.91;100088.36;1687112;85;22326;-85
2022/01/31 06:47:25;;;;;;;10.30;3.83;;;;;;;-0.07;70.90;100093.72;1686906;83;21065;-85
2022/01/31 06:49:52;;;;;;;10.82;3.80;;;;;;;-0.06;70.88;100089.02;1686884;85;21269;-85
2022/01/31 06:52:18;;;;;;;7.15;3.22;;;;;;;-0.06;70.76;100089.02;1686858;85;21142;-85
2022/01/31 06:54:49;;;;;;;11.48;2.80;;;;;;;-0.05;70.75;100083.94;1685978;83;21075;-85
2022/01/31 06:57:14;;;;;;;10.63;3.50;;;;;;;-0.05;70.73;100077.47;1679022;83;21832;-85
2022/01/31 06:59:40;;;;;;;12.33;3.10;;;;;;;-0.02;70.69;100078.95;1679488;85;21095;-85
2022/01/31 07:02:07;;;;;;;14.75;3.35;;;;;;;0.01;70.73;100082.09;1679545;85;21078;-85
2022/01/31 07:04:34;;;;;;;12.20;4.15;;;;;;;0.03;70.66;100077.90;1679271;85;21074;-85
2022/01/31 07:07:00;;;;;;;12.07;4.35;;;;;;;0.05;70.70;100075.41;1679354;85;21098;-85
2022/01/31 07:09:27;;;;;;;18.07;4.97;;;;;;;0.08;70.74;100075.17;1679457;85;21753;-85
2022/01/31 07:11:58;;;;;;;18.48;4.95;;;;;;;0.10;70.69;100076.56;1679300;85;21066;-86
2022/01/31 07:14:32;;;;;;;11.57;5.22;;;;;;;0.12;70.75;100069.36;1679028;84;21086;-85
2022/01/31 07:17:02;;;;;;;14.90;5.25;;;;;;;0.18;70.76;100070.09;1679569;85;21066;-85
2022/01/31 07:19:32;;;;;;;10.95;4.30;;;;;;;0.22;70.76;100077.63;1679582;85;21054;-86
2022/01/31 07:21:57;;;;;;;13.35;4.65;;;;;;;0.25;70.81;100076.11;1679237;84;21666;-85
2022/01/31 07:24:31;;;;;;;10.38;4.20;;;;;;;0.28;70.82;100082.76;1679552;85;21083;-85
2022/01/31 07:26:53;;;;;;;14.18;5.10;;;;;;;0.32;70.82;100081.20;1678755;83;21567;-85
2022/01/31 07:29:20;;;;;;;14.93;4.87;;;;;;;0.35;70.76;100083.97;1679772;85;21153;-85
2022/01/31 07:31:46;;;;;;;30.35;12.95;;;;;;;0.38;70.79;100084.15;1680036;85;21492;-85
2022/01/31 07:34:15;;;;;;;15.88;8.13;;;;;;;0.40;70.82;100080.36;1680010;84;21679;-85
2022/01/31 07:36:44;;;;;;;72.62;38.35;;;;;;;0.44;70.84;100082.30;1679478;84;21034;-85
2022/01/31 07:39:10;;;;;;;27.20;13.35;;;;;;;0.46;70.86;100085.86;1658440;85;21082;-85
2022/01/31 07:41:37;;;;;;;21.55;7.40;;;;;;;0.50;70.95;100086.09;1679597;85;21378;-85
2022/01/31 07:44:04;;;;;;;16.95;9.43;;;;;;;0.53;70.92;100083.69;1679427;85;21079;-86
2022/01/31 07:46:31;;;;;;;53.50;30.27;;;;;;;0.55;70.99;100083.36;1679448;85;21757;-85
2022/01/31 07:48:57;;;;;;;46.73;29.72;;;;;;;0.61;70.96;100085.80;1679382;85;21598;-86
2022/01/31 07:51:24;;;;;;;20.68;11.43;;;;;;;0.63;70.89;100081.18;1679557;85;21062;-86
2022/01/31 07:53:51;;;;;;;49.98;22.13;;;;;;;0.65;70.87;100083.45;1679430;85;21086;-86
2022/01/31 07:56:18;;;;;;;34.53;16.55;;;;;;;0.69;70.89;100085.38;1683954;83;21171;-85
2022/01/31 07:58:45;;;;;;;18.15;9.03;;;;;;;0.74;70.83;100085.23;1686552;84;21879;-86
2022/01/31 08:01:12;;;;;;;13.75;5.25;;;;;;;0.77;70.82;100080.64;1686538;85;21544;-86
2022/01/31 08:03:39;;;;;;;13.45;5.08;;;;;;;0.82;70.75;100079.58;1686671;85;21035;-86
2022/01/31 08:06:06;;;;;;;11.97;4.45;;;;;;;0.85;70.71;100075.86;1686740;85;21098;-86
2022/01/31 08:08:34;;;;;;;10.58;4.55;;;;;;;0.90;70.76;100078.27;1686767;84;21134;-86
2022/01/31 08:11:02;;;;;;;11.22;4.83;;;;;;;0.94;70.72;100081.13;1686885;84;21854;-86
2022/01/31 08:13:29;;;;;;;13.08;4.37;;;;;;;0.97;70.67;100069.60;1686597;84;21030;-86
2022/01/31 08:18:38;;;;;;;12.07;4.30;;;;;;;1.06;70.43;100076.09;1686751;83;21050;-86
2022/01/31 08:21:06;;;;;;;12.58;4.20;;;;;;;1.07;70.38;100064.89;1686525;84;21391;-86
2022/01/31 08:23:33;;;;;;;17.95;4.67;;;;;;;1.09;70.27;100064.57;1686598;84;21819;-85
2022/01/31 08:26:01;;;;;;;13.85;4.97;;;;;;;1.10;70.21;100059.88;1686493;85;21066;-85
2022/01/31 08:28:44;;;;;;;11.83;4.33;;;;;;;1.13;70.21;100058.76;1686713;84;21090;-86
2022/01/31 08:31:10;;;;;;;12.00;4.40;;;;;;;1.14;70.07;100063.99;1685135;84;21221;-85
2022/01/31 08:33:44;;;;;;;10.80;4.15;;;;;;;1.16;69.97;100069.27;1686363;83;21047;-86
2022/01/31 08:36:07;;;;;;;15.30;4.90;;;;;;;1.19;69.98;100065.96;1685580;85;21861;-86
2022/01/31 08:38:36;;;;;;;12.88;5.17;;;;;;;1.22;70.04;100057.02;1686453;85;21082;-85
2022/01/31 08:41:03;;;;;;;11.48;4.42;;;;;;;1.25;70.00;100048.12;1686519;84;21058;-86
2022/01/31 08:43:30;;;;;;;13.25;4.40;;;;;;;1.28;69.96;100040.09;1686471;84;21058;-86
2022/01/31 08:45:57;;;;;;;10.65;4.62;;;;;;;1.31;69.82;100025.08;1686644;84;21087;-85
2022/01/31 08:48:25;;;;;;;11.45;4.22;;;;;;;1.32;69.85;100026.87;1686742;83;21941;-85
2022/01/31 08:50:51;;;;;;;11.80;4.58;;;;;;;1.35;69.71;100021.83;1686470;84;21066;-86
2022/01/31 08:53:18;;;;;;;15.28;4.30;;;;;;;1.36;69.56;100020.61;1662846;85;21109;-85
2022/01/31 08:55:49;;;;;;;13.70;4.62;;;;;;;1.38;69.58;100014.21;1686669;83;21547;-85
2022/01/31 08:58:16;;;;;;;16.12;4.12;;;;;;;1.40;69.41;100018.18;1686836;85;21086;-85
2022/01/31 09:00:43;;;;;;;13.32;3.50;;;;;;;1.39;69.19;100016.00;1686418;84;22802;-85
2022/01/31 09:05:39;;;;;;;11.22;4.87;;;;;;;1.37;68.99;100016.34;1686728;84;21103;-85
2022/01/31 09:08:06;;;;;;;9.25;3.80;;;;;;;1.40;69.16;100022.07;1686649;85;21134;-84
2022/01/31 09:10:34;;;;;;;10.88;4.03;;;;;;;1.44;69.07;100024.00;1686676;85;21062;-85
2022/01/31 09:13:00;;;;;;;10.53;4.12;;;;;;;1.42;68.83;100021.73;1686647;83;22449;-85
2022/01/31 09:15:27;;;;;;;9.38;3.90;;;;;;;1.41;68.95;100011.78;1686467;85;21134;-85
2022/01/31 09:17:54;;;;;;;9.45;2.80;;;;;;;1.45;68.89;100016.30;1686715;83;21086;-85
2022/01/31 09:20:20;;;;;;;8.60;3.58;;;;;;;1.46;68.58;100018.48;1686831;85;21058;-85
2022/01/31 09:22:47;;;;;;;7.12;3.02;;;;;;;1.42;68.27;100023.91;1686921;85;21748;-85
2022/01/31 09:25:16;;;;;;;7.08;2.87;;;;;;;1.37;68.12;100026.71;1686991;85;21759;-85
2022/01/31 09:27:43;;;;;;;20.30;5.50;;;;;;;1.33;68.13;100024.37;1686922;84;21090;-85
2022/01/31 09:30:12;;;;;;;10.08;4.08;;;;;;;1.34;68.32;100019.65;1687091;85;21089;-86
2022/01/31 09:32:39;;;;;;;12.63;4.10;;;;;;;1.38;68.43;100025.88;1687190;85;21124;-86
2022/01/31 09:35:06;;;;;;;14.33;4.72;;;;;;;1.46;68.58;100021.07;1687535;84;21821;-85
2022/01/31 09:37:33;;;;;;;8.73;3.40;;;;;;;1.59;68.63;100026.05;1687282;83;21772;-85
2022/01/31 09:40:04;;;;;;;8.68;2.72;;;;;;;1.74;68.42;100037.58;1686956;83;20999;-86
2022/01/31 09:42:34;;;;;;;7.78;2.90;;;;;;;1.82;68.05;100029.78;1686668;83;21098;-85
2022/01/31 09:45:11;;;;;;;8.05;2.60;;;;;;;1.88;67.95;100028.77;1686036;85;21038;-85
2022/01/31 09:50:17;;;;;;;4.72;2.12;;;;;;;2.10;67.58;100025.88;1686715;84;22725;-85
2022/01/31 09:52:44;;;;;;;8.40;2.80;;;;;;;2.12;67.24;100020.35;1686699;84;21054;-86
2022/01/31 09:55:10;;;;;;;12.20;3.67;;;;;;;2.14;67.15;100021.34;1686593;83;21539;-85
2022/01/31 09:57:37;;;;;;;8.65;2.92;;;;;;;2.17;66.87;100027.08;1679820;83;21082;-85
2022/01/31 10:00:06;;;;;;;13.78;3.30;;;;;;;2.20;66.89;100021.62;1679351;85;21088;-85
2022/01/31 10:02:32;;;;;;;6.40;2.87;;;;;;;2.31;67.14;100015.22;1679197;85;21886;-85
2022/01/31 10:04:59;;;;;;;11.33;2.98;;;;;;;2.45;67.23;100013.23;1679578;84;21047;-85
2022/01/31 10:07:26;;;;;;;9.30;3.15;;;;;;;2.62;66.91;100017.89;1679632;85;21647;-85
2022/01/31 10:09:52;;;;;;;6.08;2.60;;;;;;;2.73;66.82;100012.77;1657855;85;21062;-85
2022/01/31 10:16:25;;;;;;;8.45;2.80;;;;;;;2.81;66.38;100022.63;1679503;85;21603;-85
2022/01/31 10:17:44;;;;;;;8.58;2.50;;;;;;;2.86;65.82;100027.20;1679443;85;21038;-86
2022/01/31 10:20:29;;;;;;;13.18;3.22;;;;;;;2.79;65.45;100025.14;1679342;85;21039;-86
2022/01/31 10:23:08;;;;;;;9.28;2.47;;;;;;;2.72;65.23;100025.69;1679607;85;21110;-86
2022/01/31 10:25:34;;;;;;;7.62;2.10;;;;;;;2.76;65.33;100026.33;1678354;84;21115;-86
2022/01/31 10:28:01;;;;;;;7.70;2.45;;;;;;;2.71;64.95;100022.20;1679683;85;21764;-86
2022/01/31 10:30:30;;;;;;;8.18;3.02;;;;;;;2.64;64.19;100029.24;1679684;85;21055;-86
2022/01/31 10:32:58;;;;;;;8.13;3.17;;;;;;;2.56;64.03;100029.32;1679621;85;21153;-86
2022/01/31 10:35:31;;;;;;;6.80;2.62;;;;;;;2.59;64.61;100022.06;1679417;84;21082;-85
2022/01/31 10:38:05;;;;;;;6.65;2.22;;;;;;;2.60;64.40;100013.05;1679820;85;21069;-86
2022/01/31 10:50:36;;;;;;;9.98;3.58;;;;;;;2.58;64.13;100012.09;1661508;85;21035;-86
2022/01/31 10:57:04;;;;;;;7.58;2.83;;;;;;;2.38;64.13;100008.58;1679446;83;21079;-85
2022/01/31 10:59:42;;;;;;;7.87;2.50;;;;;;;2.35;64.16;100011.05;1679518;85;21556;-85
2022/01/31 11:02:20;;;;;;;10.03;2.67;;;;;;;2.39;64.31;100003.88;1679481;85;21341;-85
2022/01/31 11:04:47;;;;;;;7.20;2.92;;;;;;;2.47;64.43;99997.73;1679396;85;21059;-85
2022/01/31 11:07:16;;;;;;;6.58;2.33;;;;;;;2.56;64.40;99999.86;1679633;85;21772;-85
2022/01/31 11:09:43;;;;;;;10.60;3.02;;;;;;;2.63;64.44;100008.42;1679474;84;21068;-85
2022/01/31 11:12:10;;;;;;;7.12;2.58;;;;;;;2.62;64.04;100010.52;1679450;85;21066;-85
2022/01/31 11:14:38;;;;;;;8.38;3.52;;;;;;;2.58;63.41;100015.98;1679472;84;21133;-85
2022/01/31 11:17:10;;;;;;;8.13;3.20;;;;;;;2.51;63.70;100005.71;1679234;85;21027;-85
2022/01/31 11:19:37;;;;;;;8.43;3.22;;;;;;;2.49;63.75;100003.88;1679484;85;21738;-85
2022/01/31 11:22:11;;;;;;;8.08;2.72;;;;;;;2.51;63.89;100007.02;1679350;85;21339;-85
2022/01/31 11:24:47;;;;;;;8.80;2.62;;;;;;;2.52;63.63;100008.80;1679727;84;21169;-85
2022/01/31 11:27:17;;;;;;;10.68;3.22;;;;;;;2.57;63.89;100015.49;1679611;85;21648;-85
2022/01/31 11:29:47;;;;;;;8.30;2.83;;;;;;;2.73;63.87;100013.19;1679774;85;21082;-86
2022/01/31 11:32:13;;;;;;;8.88;2.52;;;;;;;2.87;63.74;100005.59;1679584;85;21772;-85
2022/01/31 11:34:42;;;;;;;8.58;3.12;;;;;;;2.96;63.43;99999.02;1679429;85;21122;-85
2022/01/31 11:37:11;;;;;;;7.87;2.35;;;;;;;2.99;63.37;100007.84;1679710;84;21038;-85
2022/01/31 11:39:38;;;;;;;7.15;2.87;;;;;;;3.03;63.38;100008.86;1679638;84;21202;-87
2022/01/31 11:42:05;;;;;;;12.75;2.92;;;;;;;3.00;63.02;100006.99;1679589;85;21086;-86
2022/01/31 11:44:47;;;;;;;8.63;3.10;;;;;;;3.04;63.21;100011.92;1679495;85;22412;-85
2022/01/31 11:47:24;;;;;;;10.20;3.25;;;;;;;3.10;63.13;100011.78;1678859;85;21575;-86
2022/01/31 11:50:00;;;;;;;9.13;3.40;;;;;;;3.21;63.03;100010.95;1659427;85;21079;-86
2022/01/31 11:52:33;;;;;;;10.32;3.72;;;;;;;3.25;62.95;100015.88;1679364;85;21587;-85
2022/01/31 11:55:04;;;;;;;10.75;3.58;;;;;;;3.27;62.74;100007.72;1679410;85;21110;-85
2022/01/31 11:57:33;;;;;;;12.93;3.65;;;;;;;3.24;62.33;100016.69;1679109;84;21969;-85
2022/01/31 12:00:08;;;;;;;10.18;3.30;;;;;;;3.12;62.12;100013.16;1657160;85;39823;-85
2022/01/31 12:02:47;;;;;;;7.00;3.42;;;;;;;3.03;62.17;100019.26;1679061;85;21121;-85